sensor_id;sensor_type;location;lat;lon;timestamp;P1;durP1;ratioP1;P2;durP2;ratioP2
75554;SDS011;66087;53.126;17.960;2023-06-22T00:02:23;13.90;;;9.30;;
75554;SDS011;66087;53.126;17.960;2023-06-22T00:04:49;13.90;;;9.90;;
75554;SDS011;66087;53.126;17.960;2023-06-22T00:07:15;16.00;;;11.30;;
75554;SDS011;66087;53.126;17.960;2023-06-22T00:09:41;14.80;;;11.50;;
75554;SDS011;66087;53.126;17.960;2023-06-22T00:12:08;14.50;;;10.50;;
75554;SDS011;66087;53.126;17.960;2023-06-22T00:14:34;13.80;;;10.30;;
75554;SDS011;66087;53.126;17.960;2023-06-22T00:17:00;13.70;;;9.60;;
75554;SDS011;66087;53.126;17.960;2023-06-22T00:19:26;13.20;;;10.20;;
75554;SDS011;66087;53.126;17.960;2023-06-22T00:21:52;15.00;;;10.00;;
75554;SDS011;66087;53.126;17.960;2023-06-22T00:24:19;14.30;;;9.80;;
75554;SDS011;66087;53.126;17.960;2023-06-22T00:26:45;13.80;;;10.90;;
75554;SDS011;66087;53.126;17.960;2023-06-22T00:29:13;12.80;;;9.70;;
75554;SDS011;66087;53.126;17.960;2023-06-22T00:31:39;13.60;;;10.50;;
75554;SDS011;66087;53.126;17.960;2023-06-22T00:34:05;12.90;;;9.50;;
75554;SDS011;66087;53.126;17.960;2023-06-22T00:36:33;13.00;;;9.70;;
75554;SDS011;66087;53.126;17.960;2023-06-22T00:38:59;12.60;;;9.00;;
75554;SDS011;66087;53.126;17.960;2023-06-22T00:41:25;13.40;;;9.20;;
75554;SDS011;66087;53.126;17.960;2023-06-22T00:43:55;14.20;;;9.40;;
75554;SDS011;66087;53.126;17.960;2023-06-22T00:46:24;15.00;;;10.70;;
75554;SDS011;66087;53.126;17.960;2023-06-22T00:48:51;15.30;;;9.90;;
75554;SDS011;66087;53.126;17.960;2023-06-22T00:51:21;14.50;;;10.10;;
75554;SDS011;66087;53.126;17.960;2023-06-22T00:53:50;12.00;;;9.20;;
75554;SDS011;66087;53.126;17.960;2023-06-22T00:56:18;13.70;;;10.10;;
75554;SDS011;66087;53.126;17.960;2023-06-22T00:58:46;15.00;;;10.60;;
75554;SDS011;66087;53.126;17.960;2023-06-22T01:01:13;13.80;;;10.40;;
75554;SDS011;66087;53.126;17.960;2023-06-22T01:03:40;11.90;;;8.40;;
75554;SDS011;66087;53.126;17.960;2023-06-22T01:06:26;12.40;;;9.80;;
75554;SDS011;66087;53.126;17.960;2023-06-22T01:09:07;13.30;;;9.10;;
75554;SDS011;66087;53.126;17.960;2023-06-22T01:11:42;14.30;;;9.60;;
75554;SDS011;66087;53.126;17.960;2023-06-22T01:14:23;12.80;;;9.20;;
75554;SDS011;66087;53.126;17.960;2023-06-22T01:17:13;13.30;;;9.40;;
75554;SDS011;66087;53.126;17.960;2023-06-22T01:20:01;11.60;;;8.70;;
75554;SDS011;66087;53.126;17.960;2023-06-22T01:22:33;11.70;;;8.10;;
75554;SDS011;66087;53.126;17.960;2023-06-22T01:25:13;13.10;;;8.20;;
75554;SDS011;66087;53.126;17.960;2023-06-22T01:30:55;11.80;;;7.70;;
75554;SDS011;66087;53.126;17.960;2023-06-22T01:33:32;11.30;;;7.60;;
75554;SDS011;66087;53.126;17.960;2023-06-22T01:36:01;11.40;;;7.40;;
75554;SDS011;66087;53.126;17.960;2023-06-22T01:38:28;11.40;;;8.10;;
75554;SDS011;66087;53.126;17.960;2023-06-22T01:40:55;11.70;;;7.60;;
75554;SDS011;66087;53.126;17.960;2023-06-22T01:43:25;11.80;;;9.30;;
75554;SDS011;66087;53.126;17.960;2023-06-22T01:45:55;12.20;;;8.80;;
75554;SDS011;66087;53.126;17.960;2023-06-22T01:48:22;13.90;;;8.80;;
75554;SDS011;66087;53.126;17.960;2023-06-22T01:51:08;11.20;;;7.80;;
75554;SDS011;66087;53.126;17.960;2023-06-22T01:53:35;10.90;;;7.50;;
75554;SDS011;66087;53.126;17.960;2023-06-22T01:56:04;11.40;;;8.00;;
75554;SDS011;66087;53.126;17.960;2023-06-22T01:58:30;11.30;;;7.20;;
75554;SDS011;66087;53.126;17.960;2023-06-22T02:01:03;11.80;;;7.30;;
75554;SDS011;66087;53.126;17.960;2023-06-22T02:03:37;11.70;;;7.40;;
75554;SDS011;66087;53.126;17.960;2023-06-22T02:06:10;10.10;;;7.60;;
75554;SDS011;66087;53.126;17.960;2023-06-22T02:08:48;10.30;;;7.50;;
75554;SDS011;66087;53.126;17.960;2023-06-22T02:11:39;11.20;;;6.60;;
75554;SDS011;66087;53.126;17.960;2023-06-22T02:14:08;11.80;;;7.70;;
75554;SDS011;66087;53.126;17.960;2023-06-22T02:16:35;10.10;;;6.20;;
75554;SDS011;66087;53.126;17.960;2023-06-22T02:19:03;12.80;;;7.90;;
75554;SDS011;66087;53.126;17.960;2023-06-22T02:21:31;16.10;;;8.10;;
75554;SDS011;66087;53.126;17.960;2023-06-22T02:23:59;13.80;;;8.70;;
75554;SDS011;66087;53.126;17.960;2023-06-22T02:26:25;10.80;;;7.40;;
75554;SDS011;66087;53.126;17.960;2023-06-22T02:28:53;14.60;;;9.30;;
75554;SDS011;66087;53.126;17.960;2023-06-22T02:31:19;12.90;;;7.70;;
75554;SDS011;66087;53.126;17.960;2023-06-22T02:33:47;12.60;;;8.40;;
75554;SDS011;66087;53.126;17.960;2023-06-22T02:36:32;10.50;;;6.90;;
75554;SDS011;66087;53.126;17.960;2023-06-22T02:39:00;12.50;;;7.70;;
75554;SDS011;66087;53.126;17.960;2023-06-22T02:41:31;10.70;;;6.80;;
75554;SDS011;66087;53.126;17.960;2023-06-22T02:43:57;11.30;;;7.30;;
75554;SDS011;66087;53.126;17.960;2023-06-22T02:46:23;10.00;;;6.60;;
75554;SDS011;66087;53.126;17.960;2023-06-22T02:48:49;12.00;;;7.60;;
75554;SDS011;66087;53.126;17.960;2023-06-22T02:51:16;11.60;;;6.90;;
75554;SDS011;66087;53.126;17.960;2023-06-22T02:53:43;9.60;;;6.10;;
75554;SDS011;66087;53.126;17.960;2023-06-22T02:56:12;11.60;;;6.90;;
75554;SDS011;66087;53.126;17.960;2023-06-22T02:58:39;11.30;;;7.70;;
75554;SDS011;66087;53.126;17.960;2023-06-22T03:01:07;10.10;;;6.90;;
75554;SDS011;66087;53.126;17.960;2023-06-22T03:03:36;11.60;;;6.50;;
75554;SDS011;66087;53.126;17.960;2023-06-22T03:06:02;11.80;;;6.20;;
75554;SDS011;66087;53.126;17.960;2023-06-22T03:08:29;12.00;;;6.50;;
75554;SDS011;66087;53.126;17.960;2023-06-22T03:10:56;10.50;;;6.50;;
75554;SDS011;66087;53.126;17.960;2023-06-22T03:13:22;8.70;;;5.70;;
75554;SDS011;66087;53.126;17.960;2023-06-22T03:16:09;10.00;;;6.50;;
75554;SDS011;66087;53.126;17.960;2023-06-22T03:18:36;9.70;;;6.10;;
75554;SDS011;66087;53.126;17.960;2023-06-22T03:21:03;10.80;;;5.80;;
75554;SDS011;66087;53.126;17.960;2023-06-22T03:23:31;10.80;;;6.40;;
75554;SDS011;66087;53.126;17.960;2023-06-22T03:25:57;10.90;;;6.80;;
75554;SDS011;66087;53.126;17.960;2023-06-22T03:28:23;10.30;;;6.20;;
75554;SDS011;66087;53.126;17.960;2023-06-22T03:30:58;10.90;;;6.10;;
75554;SDS011;66087;53.126;17.960;2023-06-22T03:33:24;11.00;;;5.90;;
75554;SDS011;66087;53.126;17.960;2023-06-22T03:35:51;10.70;;;6.00;;
75554;SDS011;66087;53.126;17.960;2023-06-22T03:38:18;10.50;;;6.00;;
75554;SDS011;66087;53.126;17.960;2023-06-22T03:40:44;9.50;;;5.40;;
75554;SDS011;66087;53.126;17.960;2023-06-22T03:43:11;10.50;;;6.10;;
75554;SDS011;66087;53.126;17.960;2023-06-22T03:45:37;9.30;;;5.60;;
75554;SDS011;66087;53.126;17.960;2023-06-22T03:48:23;10.70;;;6.20;;
75554;SDS011;66087;53.126;17.960;2023-06-22T03:50:49;10.30;;;6.00;;
75554;SDS011;66087;53.126;17.960;2023-06-22T03:53:16;9.40;;;5.60;;
75554;SDS011;66087;53.126;17.960;2023-06-22T03:55:51;9.00;;;4.40;;
75554;SDS011;66087;53.126;17.960;2023-06-22T03:58:19;12.50;;;6.40;;
75554;SDS011;66087;53.126;17.960;2023-06-22T04:00:49;8.90;;;5.20;;
75554;SDS011;66087;53.126;17.960;2023-06-22T04:03:16;8.60;;;5.20;;
75554;SDS011;66087;53.126;17.960;2023-06-22T04:05:44;9.90;;;5.40;;
75554;SDS011;66087;53.126;17.960;2023-06-22T04:08:13;10.40;;;5.10;;
75554;SDS011;66087;53.126;17.960;2023-06-22T04:10:41;9.10;;;5.30;;
75554;SDS011;66087;53.126;17.960;2023-06-22T04:13:07;10.70;;;6.50;;
75554;SDS011;66087;53.126;17.960;2023-06-22T04:15:35;9.10;;;5.50;;
75554;SDS011;66087;53.126;17.960;2023-06-22T04:18:04;9.60;;;5.70;;
75554;SDS011;66087;53.126;17.960;2023-06-22T04:20:31;9.30;;;5.00;;
75554;SDS011;66087;53.126;17.960;2023-06-22T04:22:57;9.60;;;5.10;;
75554;SDS011;66087;53.126;17.960;2023-06-22T04:25:23;8.80;;;5.10;;
75554;SDS011;66087;53.126;17.960;2023-06-22T04:27:50;8.40;;;4.90;;
75554;SDS011;66087;53.126;17.960;2023-06-22T04:30:17;10.70;;;5.40;;
75554;SDS011;66087;53.126;17.960;2023-06-22T04:32:43;10.40;;;5.80;;
75554;SDS011;66087;53.126;17.960;2023-06-22T04:35:10;9.40;;;5.20;;
75554;SDS011;66087;53.126;17.960;2023-06-22T04:37:57;12.20;;;5.60;;
75554;SDS011;66087;53.126;17.960;2023-06-22T04:40:24;8.40;;;5.70;;
75554;SDS011;66087;53.126;17.960;2023-06-22T04:42:50;10.80;;;5.30;;
75554;SDS011;66087;53.126;17.960;2023-06-22T04:45:36;11.20;;;5.10;;
75554;SDS011;66087;53.126;17.960;2023-06-22T04:48:04;8.00;;;5.20;;
75554;SDS011;66087;53.126;17.960;2023-06-22T04:50:31;8.40;;;4.80;;
75554;SDS011;66087;53.126;17.960;2023-06-22T04:53:01;8.80;;;5.00;;
75554;SDS011;66087;53.126;17.960;2023-06-22T04:55:31;8.40;;;4.80;;
75554;SDS011;66087;53.126;17.960;2023-06-22T04:58:20;10.30;;;5.70;;
75554;SDS011;66087;53.126;17.960;2023-06-22T05:00:47;7.10;;;3.90;;
75554;SDS011;66087;53.126;17.960;2023-06-22T05:03:15;11.30;;;5.30;;
75554;SDS011;66087;53.126;17.960;2023-06-22T05:05:44;8.10;;;4.70;;
75554;SDS011;66087;53.126;17.960;2023-06-22T05:08:11;9.80;;;4.80;;
75554;SDS011;66087;53.126;17.960;2023-06-22T05:10:40;9.70;;;4.60;;
75554;SDS011;66087;53.126;17.960;2023-06-22T05:13:10;7.90;;;3.90;;
75554;SDS011;66087;53.126;17.960;2023-06-22T05:15:36;8.10;;;4.70;;
75554;SDS011;66087;53.126;17.960;2023-06-22T05:18:05;7.80;;;4.30;;
75554;SDS011;66087;53.126;17.960;2023-06-22T05:20:33;9.60;;;4.80;;
75554;SDS011;66087;53.126;17.960;2023-06-22T05:23:01;9.90;;;4.90;;
75554;SDS011;66087;53.126;17.960;2023-06-22T05:25:28;9.00;;;4.70;;
75554;SDS011;66087;53.126;17.960;2023-06-22T05:27:55;9.40;;;5.10;;
75554;SDS011;66087;53.126;17.960;2023-06-22T05:30:21;7.80;;;5.20;;
75554;SDS011;66087;53.126;17.960;2023-06-22T05:32:47;8.70;;;4.90;;
75554;SDS011;66087;53.126;17.960;2023-06-22T05:35:15;8.70;;;4.90;;
75554;SDS011;66087;53.126;17.960;2023-06-22T05:37:43;7.70;;;4.40;;
75554;SDS011;66087;53.126;17.960;2023-06-22T05:40:11;8.90;;;5.00;;
75554;SDS011;66087;53.126;17.960;2023-06-22T05:42:38;6.80;;;4.10;;
75554;SDS011;66087;53.126;17.960;2023-06-22T05:45:06;9.30;;;4.50;;
75554;SDS011;66087;53.126;17.960;2023-06-22T05:47:34;7.80;;;4.20;;
75554;SDS011;66087;53.126;17.960;2023-06-22T05:50:02;9.00;;;4.10;;
75554;SDS011;66087;53.126;17.960;2023-06-22T05:52:32;7.70;;;4.80;;
75554;SDS011;66087;53.126;17.960;2023-06-22T05:55:18;9.80;;;4.50;;
75554;SDS011;66087;53.126;17.960;2023-06-22T05:57:46;10.00;;;4.40;;
75554;SDS011;66087;53.126;17.960;2023-06-22T06:00:12;9.40;;;4.00;;
75554;SDS011;66087;53.126;17.960;2023-06-22T06:02:44;8.80;;;3.90;;
75554;SDS011;66087;53.126;17.960;2023-06-22T06:05:11;8.50;;;4.60;;
75554;SDS011;66087;53.126;17.960;2023-06-22T06:07:57;7.70;;;4.20;;
75554;SDS011;66087;53.126;17.960;2023-06-22T06:10:42;6.80;;;3.60;;
75554;SDS011;66087;53.126;17.960;2023-06-22T06:13:29;9.30;;;3.70;;
75554;SDS011;66087;53.126;17.960;2023-06-22T06:15:56;6.90;;;3.00;;
75554;SDS011;66087;53.126;17.960;2023-06-22T06:18:23;6.70;;;3.70;;
75554;SDS011;66087;53.126;17.960;2023-06-22T06:20:49;6.30;;;3.70;;
75554;SDS011;66087;53.126;17.960;2023-06-22T06:23:18;7.00;;;3.30;;
75554;SDS011;66087;53.126;17.960;2023-06-22T06:25:44;5.00;;;2.70;;
75554;SDS011;66087;53.126;17.960;2023-06-22T06:28:10;6.00;;;2.60;;
75554;SDS011;66087;53.126;17.960;2023-06-22T06:30:38;6.50;;;3.10;;
75554;SDS011;66087;53.126;17.960;2023-06-22T06:37:23;6.20;;;2.60;;
75554;SDS011;66087;53.126;17.960;2023-06-22T06:39:51;5.60;;;2.40;;
75554;SDS011;66087;53.126;17.960;2023-06-22T06:42:37;5.00;;;2.80;;
75554;SDS011;66087;53.126;17.960;2023-06-22T06:45:08;6.70;;;2.80;;
75554;SDS011;66087;53.126;17.960;2023-06-22T06:47:34;6.20;;;2.90;;
75554;SDS011;66087;53.126;17.960;2023-06-22T06:50:01;6.00;;;3.00;;
75554;SDS011;66087;53.126;17.960;2023-06-22T06:52:27;4.90;;;2.70;;
75554;SDS011;66087;53.126;17.960;2023-06-22T06:54:57;5.70;;;2.80;;
75554;SDS011;66087;53.126;17.960;2023-06-22T06:57:23;6.50;;;2.90;;
75554;SDS011;66087;53.126;17.960;2023-06-22T06:59:50;8.10;;;2.80;;
75554;SDS011;66087;53.126;17.960;2023-06-22T07:02:17;6.60;;;2.40;;
75554;SDS011;66087;53.126;17.960;2023-06-22T07:04:44;4.70;;;2.50;;
75554;SDS011;66087;53.126;17.960;2023-06-22T07:07:12;4.90;;;2.50;;
75554;SDS011;66087;53.126;17.960;2023-06-22T07:09:38;6.00;;;2.50;;
75554;SDS011;66087;53.126;17.960;2023-06-22T07:12:06;8.30;;;3.50;;
75554;SDS011;66087;53.126;17.960;2023-06-22T07:14:33;7.40;;;2.90;;
75554;SDS011;66087;53.126;17.960;2023-06-22T07:16:59;4.50;;;2.00;;
75554;SDS011;66087;53.126;17.960;2023-06-22T07:19:25;6.00;;;2.40;;
75554;SDS011;66087;53.126;17.960;2023-06-22T07:21:53;5.70;;;3.00;;
75554;SDS011;66087;53.126;17.960;2023-06-22T07:24:20;6.20;;;3.30;;
75554;SDS011;66087;53.126;17.960;2023-06-22T07:26:50;5.30;;;2.60;;
75554;SDS011;66087;53.126;17.960;2023-06-22T07:29:25;4.50;;;2.00;;
75554;SDS011;66087;53.126;17.960;2023-06-22T07:31:54;5.60;;;2.60;;
75554;SDS011;66087;53.126;17.960;2023-06-22T07:34:27;5.90;;;2.60;;
75554;SDS011;66087;53.126;17.960;2023-06-22T07:36:55;7.10;;;3.00;;
75554;SDS011;66087;53.126;17.960;2023-06-22T07:39:21;7.10;;;2.60;;
75554;SDS011;66087;53.126;17.960;2023-06-22T07:41:51;5.60;;;2.10;;
75554;SDS011;66087;53.126;17.960;2023-06-22T07:44:17;4.70;;;2.30;;
75554;SDS011;66087;53.126;17.960;2023-06-22T07:46:43;4.70;;;2.40;;
75554;SDS011;66087;53.126;17.960;2023-06-22T07:49:10;4.50;;;2.50;;
75554;SDS011;66087;53.126;17.960;2023-06-22T07:51:36;5.40;;;2.90;;
75554;SDS011;66087;53.126;17.960;2023-06-22T07:54:02;4.30;;;2.50;;
75554;SDS011;66087;53.126;17.960;2023-06-22T07:56:31;5.50;;;2.60;;
75554;SDS011;66087;53.126;17.960;2023-06-22T07:58:58;5.80;;;2.70;;
75554;SDS011;66087;53.126;17.960;2023-06-22T08:01:26;4.60;;;2.60;;
75554;SDS011;66087;53.126;17.960;2023-06-22T08:03:52;6.60;;;3.10;;
75554;SDS011;66087;53.126;17.960;2023-06-22T08:06:18;5.50;;;2.50;;
75554;SDS011;66087;53.126;17.960;2023-06-22T08:08:44;4.60;;;2.50;;
75554;SDS011;66087;53.126;17.960;2023-06-22T08:11:13;4.90;;;2.40;;
75554;SDS011;66087;53.126;17.960;2023-06-22T08:13:39;5.30;;;2.80;;
75554;SDS011;66087;53.126;17.960;2023-06-22T08:16:06;4.80;;;2.50;;
75554;SDS011;66087;53.126;17.960;2023-06-22T08:18:33;6.20;;;2.40;;
75554;SDS011;66087;53.126;17.960;2023-06-22T08:21:19;5.30;;;2.70;;
75554;SDS011;66087;53.126;17.960;2023-06-22T08:24:04;6.10;;;2.90;;
75554;SDS011;66087;53.126;17.960;2023-06-22T08:26:31;6.80;;;2.70;;
75554;SDS011;66087;53.126;17.960;2023-06-22T08:29:02;6.20;;;2.30;;
75554;SDS011;66087;53.126;17.960;2023-06-22T08:31:31;6.50;;;2.40;;
75554;SDS011;66087;53.126;17.960;2023-06-22T08:33:59;4.70;;;2.50;;
75554;SDS011;66087;53.126;17.960;2023-06-22T08:36:25;4.90;;;2.30;;
75554;SDS011;66087;53.126;17.960;2023-06-22T08:38:54;5.60;;;2.70;;
75554;SDS011;66087;53.126;17.960;2023-06-22T08:41:26;5.60;;;2.90;;
75554;SDS011;66087;53.126;17.960;2023-06-22T08:43:54;7.00;;;2.80;;
75554;SDS011;66087;53.126;17.960;2023-06-22T08:46:22;6.70;;;2.90;;
75554;SDS011;66087;53.126;17.960;2023-06-22T08:48:56;5.50;;;3.10;;
75554;SDS011;66087;53.126;17.960;2023-06-22T08:51:28;4.50;;;2.40;;
75554;SDS011;66087;53.126;17.960;2023-06-22T08:53:55;6.60;;;3.20;;
75554;SDS011;66087;53.126;17.960;2023-06-22T08:56:21;5.70;;;2.70;;
75554;SDS011;66087;53.126;17.960;2023-06-22T08:58:47;5.20;;;3.10;;
75554;SDS011;66087;53.126;17.960;2023-06-22T09:01:13;5.80;;;3.20;;
75554;SDS011;66087;53.126;17.960;2023-06-22T09:03:41;6.10;;;2.60;;
75554;SDS011;66087;53.126;17.960;2023-06-22T09:06:07;5.10;;;2.50;;
75554;SDS011;66087;53.126;17.960;2023-06-22T09:08:56;4.90;;;2.30;;
75554;SDS011;66087;53.126;17.960;2023-06-22T09:11:22;5.00;;;2.60;;
75554;SDS011;66087;53.126;17.960;2023-06-22T09:13:48;4.40;;;2.20;;
75554;SDS011;66087;53.126;17.960;2023-06-22T09:16:24;6.20;;;2.70;;
75554;SDS011;66087;53.126;17.960;2023-06-22T09:18:53;5.00;;;2.10;;
75554;SDS011;66087;53.126;17.960;2023-06-22T09:21:19;4.90;;;2.20;;
75554;SDS011;66087;53.126;17.960;2023-06-22T09:23:47;4.50;;;2.30;;
75554;SDS011;66087;53.126;17.960;2023-06-22T09:26:18;4.40;;;2.30;;
75554;SDS011;66087;53.126;17.960;2023-06-22T09:28:45;5.20;;;2.20;;
75554;SDS011;66087;53.126;17.960;2023-06-22T09:31:11;5.00;;;1.80;;
75554;SDS011;66087;53.126;17.960;2023-06-22T09:33:37;5.00;;;2.50;;
75554;SDS011;66087;53.126;17.960;2023-06-22T09:36:05;3.70;;;2.10;;
75554;SDS011;66087;53.126;17.960;2023-06-22T09:38:36;5.80;;;2.50;;
75554;SDS011;66087;53.126;17.960;2023-06-22T09:41:02;5.00;;;2.50;;
75554;SDS011;66087;53.126;17.960;2023-06-22T09:43:35;4.80;;;2.10;;
75554;SDS011;66087;53.126;17.960;2023-06-22T09:46:02;5.20;;;2.30;;
75554;SDS011;66087;53.126;17.960;2023-06-22T09:48:28;5.70;;;2.20;;
75554;SDS011;66087;53.126;17.960;2023-06-22T09:50:58;4.70;;;2.50;;
75554;SDS011;66087;53.126;17.960;2023-06-22T09:53:25;4.30;;;2.20;;
75554;SDS011;66087;53.126;17.960;2023-06-22T09:55:51;4.30;;;1.90;;
75554;SDS011;66087;53.126;17.960;2023-06-22T09:58:17;4.70;;;2.20;;
75554;SDS011;66087;53.126;17.960;2023-06-22T10:00:44;3.80;;;1.80;;
75554;SDS011;66087;53.126;17.960;2023-06-22T10:03:11;4.80;;;2.10;;
75554;SDS011;66087;53.126;17.960;2023-06-22T10:05:37;3.80;;;2.10;;
75554;SDS011;66087;53.126;17.960;2023-06-22T10:08:03;5.10;;;2.50;;
75554;SDS011;66087;53.126;17.960;2023-06-22T10:10:29;6.60;;;2.20;;
75554;SDS011;66087;53.126;17.960;2023-06-22T10:12:56;5.00;;;2.40;;
75554;SDS011;66087;53.126;17.960;2023-06-22T10:15:23;3.60;;;2.00;;
75554;SDS011;66087;53.126;17.960;2023-06-22T10:17:50;4.40;;;2.30;;
75554;SDS011;66087;53.126;17.960;2023-06-22T10:20:17;4.40;;;2.30;;
75554;SDS011;66087;53.126;17.960;2023-06-22T10:22:44;4.70;;;1.90;;
75554;SDS011;66087;53.126;17.960;2023-06-22T10:25:12;3.40;;;1.80;;
75554;SDS011;66087;53.126;17.960;2023-06-22T10:27:58;4.50;;;2.20;;
75554;SDS011;66087;53.126;17.960;2023-06-22T10:30:34;4.80;;;2.50;;
75554;SDS011;66087;53.126;17.960;2023-06-22T10:33:01;3.70;;;2.00;;
75554;SDS011;66087;53.126;17.960;2023-06-22T10:36:11;3.30;;;2.00;;
75554;SDS011;66087;53.126;17.960;2023-06-22T10:38:37;5.50;;;2.10;;
75554;SDS011;66087;53.126;17.960;2023-06-22T10:41:05;5.00;;;2.50;;
75554;SDS011;66087;53.126;17.960;2023-06-22T10:43:32;4.40;;;2.30;;
75554;SDS011;66087;53.126;17.960;2023-06-22T10:45:58;3.40;;;1.80;;
75554;SDS011;66087;53.126;17.960;2023-06-22T10:48:25;4.60;;;2.10;;
75554;SDS011;66087;53.126;17.960;2023-06-22T10:50:51;5.10;;;2.20;;
75554;SDS011;66087;53.126;17.960;2023-06-22T10:53:20;5.00;;;2.20;;
75554;SDS011;66087;53.126;17.960;2023-06-22T10:55:47;3.80;;;1.80;;
75554;SDS011;66087;53.126;17.960;2023-06-22T10:58:15;4.00;;;1.80;;
75554;SDS011;66087;53.126;17.960;2023-06-22T11:00:41;3.80;;;1.90;;
75554;SDS011;66087;53.126;17.960;2023-06-22T11:03:09;4.40;;;2.10;;
75554;SDS011;66087;53.126;17.960;2023-06-22T11:05:41;4.10;;;1.90;;
75554;SDS011;66087;53.126;17.960;2023-06-22T11:08:07;3.60;;;2.10;;
75554;SDS011;66087;53.126;17.960;2023-06-22T11:10:35;4.90;;;2.00;;
75554;SDS011;66087;53.126;17.960;2023-06-22T11:13:17;4.90;;;1.90;;
75554;SDS011;66087;53.126;17.960;2023-06-22T11:15:48;5.80;;;2.10;;
75554;SDS011;66087;53.126;17.960;2023-06-22T11:18:20;4.60;;;2.20;;
75554;SDS011;66087;53.126;17.960;2023-06-22T11:21:12;4.20;;;2.10;;
75554;SDS011;66087;53.126;17.960;2023-06-22T11:23:39;4.20;;;2.10;;
75554;SDS011;66087;53.126;17.960;2023-06-22T11:26:10;3.80;;;1.90;;
75554;SDS011;66087;53.126;17.960;2023-06-22T11:28:36;3.50;;;2.00;;
75554;SDS011;66087;53.126;17.960;2023-06-22T11:31:02;4.10;;;2.00;;
75554;SDS011;66087;53.126;17.960;2023-06-22T11:33:29;4.00;;;1.90;;
75554;SDS011;66087;53.126;17.960;2023-06-22T11:35:56;4.10;;;1.70;;
75554;SDS011;66087;53.126;17.960;2023-06-22T11:38:23;2.80;;;1.60;;
75554;SDS011;66087;53.126;17.960;2023-06-22T11:40:49;3.70;;;1.70;;
75554;SDS011;66087;53.126;17.960;2023-06-22T11:43:16;5.20;;;2.00;;
75554;SDS011;66087;53.126;17.960;2023-06-22T11:45:42;4.00;;;1.90;;
75554;SDS011;66087;53.126;17.960;2023-06-22T11:48:11;3.70;;;1.80;;
75554;SDS011;66087;53.126;17.960;2023-06-22T11:50:37;4.20;;;1.80;;
75554;SDS011;66087;53.126;17.960;2023-06-22T11:53:05;3.70;;;1.90;;
75554;SDS011;66087;53.126;17.960;2023-06-22T11:55:32;4.60;;;2.40;;
75554;SDS011;66087;53.126;17.960;2023-06-22T11:57:59;5.20;;;2.00;;
75554;SDS011;66087;53.126;17.960;2023-06-22T12:00:26;4.60;;;1.80;;
75554;SDS011;66087;53.126;17.960;2023-06-22T12:02:52;4.50;;;2.20;;
75554;SDS011;66087;53.126;17.960;2023-06-22T12:05:19;4.40;;;2.40;;
75554;SDS011;66087;53.126;17.960;2023-06-22T12:07:46;3.80;;;2.20;;
75554;SDS011;66087;53.126;17.960;2023-06-22T12:10:12;4.50;;;2.70;;
75554;SDS011;66087;53.126;17.960;2023-06-22T12:12:41;4.40;;;2.00;;
75554;SDS011;66087;53.126;17.960;2023-06-22T12:15:08;3.80;;;2.20;;
75554;SDS011;66087;53.126;17.960;2023-06-22T12:17:36;4.00;;;2.00;;
75554;SDS011;66087;53.126;17.960;2023-06-22T12:20:02;4.30;;;2.50;;
75554;SDS011;66087;53.126;17.960;2023-06-22T12:22:32;3.50;;;2.00;;
75554;SDS011;66087;53.126;17.960;2023-06-22T12:24:59;3.90;;;2.10;;
75554;SDS011;66087;53.126;17.960;2023-06-22T12:27:26;3.80;;;1.80;;
75554;SDS011;66087;53.126;17.960;2023-06-22T12:29:52;3.90;;;1.80;;
75554;SDS011;66087;53.126;17.960;2023-06-22T12:32:17;4.40;;;2.20;;
75554;SDS011;66087;53.126;17.960;2023-06-22T12:34:44;3.40;;;2.10;;
75554;SDS011;66087;53.126;17.960;2023-06-22T12:37:11;6.90;;;2.50;;
75554;SDS011;66087;53.126;17.960;2023-06-22T12:39:40;4.10;;;2.00;;
75554;SDS011;66087;53.126;17.960;2023-06-22T12:42:09;4.80;;;2.30;;
75554;SDS011;66087;53.126;17.960;2023-06-22T12:44:37;4.30;;;2.50;;
75554;SDS011;66087;53.126;17.960;2023-06-22T12:47:07;4.60;;;2.30;;
75554;SDS011;66087;53.126;17.960;2023-06-22T12:49:35;5.20;;;2.70;;
75554;SDS011;66087;53.126;17.960;2023-06-22T12:52:12;3.30;;;2.20;;
75554;SDS011;66087;53.126;17.960;2023-06-22T12:54:39;4.70;;;2.60;;
75554;SDS011;66087;53.126;17.960;2023-06-22T12:57:08;6.50;;;3.40;;
75554;SDS011;66087;53.126;17.960;2023-06-22T12:59:34;4.40;;;3.20;;
75554;SDS011;66087;53.126;17.960;2023-06-22T13:02:00;5.60;;;2.80;;
75554;SDS011;66087;53.126;17.960;2023-06-22T13:04:26;5.40;;;3.10;;
75554;SDS011;66087;53.126;17.960;2023-06-22T13:06:52;3.90;;;2.80;;
75554;SDS011;66087;53.126;17.960;2023-06-22T13:09:38;3.90;;;2.90;;
75554;SDS011;66087;53.126;17.960;2023-06-22T13:12:04;5.70;;;3.00;;
75554;SDS011;66087;53.126;17.960;2023-06-22T13:14:30;3.60;;;2.90;;
75554;SDS011;66087;53.126;17.960;2023-06-22T13:16:56;4.20;;;2.80;;
75554;SDS011;66087;53.126;17.960;2023-06-22T13:19:42;4.00;;;3.00;;
75554;SDS011;66087;53.126;17.960;2023-06-22T13:22:25;4.60;;;3.30;;
75554;SDS011;66087;53.126;17.960;2023-06-22T13:24:58;5.20;;;3.00;;
75554;SDS011;66087;53.126;17.960;2023-06-22T13:27:26;4.90;;;3.30;;
75554;SDS011;66087;53.126;17.960;2023-06-22T13:29:56;3.80;;;3.00;;
75554;SDS011;66087;53.126;17.960;2023-06-22T13:32:24;4.30;;;3.60;;
75554;SDS011;66087;53.126;17.960;2023-06-22T13:34:51;4.90;;;3.70;;
75554;SDS011;66087;53.126;17.960;2023-06-22T13:37:37;4.50;;;3.70;;
75554;SDS011;66087;53.126;17.960;2023-06-22T13:40:05;4.40;;;3.10;;
75554;SDS011;66087;53.126;17.960;2023-06-22T13:42:32;4.30;;;3.10;;
75554;SDS011;66087;53.126;17.960;2023-06-22T13:44:59;4.40;;;3.20;;
75554;SDS011;66087;53.126;17.960;2023-06-22T13:47:25;4.50;;;3.70;;
75554;SDS011;66087;53.126;17.960;2023-06-22T13:49:54;3.80;;;3.40;;
75554;SDS011;66087;53.126;17.960;2023-06-22T13:52:40;4.80;;;3.80;;
75554;SDS011;66087;53.126;17.960;2023-06-22T13:55:08;4.50;;;4.00;;
75554;SDS011;66087;53.126;17.960;2023-06-22T13:57:35;4.60;;;3.50;;
75554;SDS011;66087;53.126;17.960;2023-06-22T14:00:05;4.60;;;3.30;;
75554;SDS011;66087;53.126;17.960;2023-06-22T14:02:38;5.30;;;3.50;;
75554;SDS011;66087;53.126;17.960;2023-06-22T14:05:07;4.10;;;3.50;;
75554;SDS011;66087;53.126;17.960;2023-06-22T14:07:34;5.20;;;4.10;;
75554;SDS011;66087;53.126;17.960;2023-06-22T14:10:01;4.60;;;4.20;;
75554;SDS011;66087;53.126;17.960;2023-06-22T14:12:27;5.20;;;4.30;;
75554;SDS011;66087;53.126;17.960;2023-06-22T14:14:53;4.90;;;4.30;;
75554;SDS011;66087;53.126;17.960;2023-06-22T14:17:19;4.60;;;4.20;;
75554;SDS011;66087;53.126;17.960;2023-06-22T14:19:49;4.80;;;4.10;;
75554;SDS011;66087;53.126;17.960;2023-06-22T14:22:18;4.40;;;4.00;;
75554;SDS011;66087;53.126;17.960;2023-06-22T14:24:45;4.40;;;3.90;;
75554;SDS011;66087;53.126;17.960;2023-06-22T14:27:13;5.00;;;4.10;;
75554;SDS011;66087;53.126;17.960;2023-06-22T14:29:39;4.80;;;3.80;;
75554;SDS011;66087;53.126;17.960;2023-06-22T14:32:07;4.90;;;4.10;;
75554;SDS011;66087;53.126;17.960;2023-06-22T14:34:35;6.30;;;4.10;;
75554;SDS011;66087;53.126;17.960;2023-06-22T14:37:06;4.70;;;4.20;;
75554;SDS011;66087;53.126;17.960;2023-06-22T14:39:33;5.40;;;4.30;;
75554;SDS011;66087;53.126;17.960;2023-06-22T14:41:59;4.70;;;4.20;;
75554;SDS011;66087;53.126;17.960;2023-06-22T14:44:26;4.90;;;4.40;;
75554;SDS011;66087;53.126;17.960;2023-06-22T14:46:56;6.40;;;4.40;;
75554;SDS011;66087;53.126;17.960;2023-06-22T14:49:22;4.50;;;4.10;;
75554;SDS011;66087;53.126;17.960;2023-06-22T14:51:49;4.90;;;4.50;;